Time;durP1;ratioP1;P1;durP2;ratioP2;P2;SDS_P1;SDS_P2;PMS_P1;PMS_P2;Temp;Humidity;BMP_temperature;BMP_pressure;BME280_temperature;BME280_humidity;BME280_pressure;Samples;Min_cycle;Max_cycle;Signal;HPM_P1;HPM_P2
2021/06/03 00:00:32;;;;;;;4.20;2.20;;;;;;;12.37;48.75;94315.81;5093715;28;20030;-76
2021/06/03 00:02:58;;;;;;;5.22;2.00;;;;;;;12.44;48.42;94313.47;5103608;28;20125;-77
2021/06/03 00:05:27;;;;;;;7.88;2.42;;;;;;;12.52;48.30;94314.59;5096383;28;20500;-74
2021/06/03 00:07:52;;;;;;;4.72;2.17;;;;;;;12.59;48.15;94310.31;5099912;28;20028;-75
2021/06/03 00:10:18;;;;;;;3.10;2.03;;;;;;;12.61;48.35;94316.16;5098194;28;20024;-75
2021/06/03 00:12:44;;;;;;;7.18;2.20;;;;;;;12.58;48.20;94310.66;5102917;28;20486;-75
2021/06/03 00:15:13;;;;;;;6.25;2.22;;;;;;;12.54;48.47;94313.16;5099799;28;20078;-75
2021/06/03 00:17:38;;;;;;;7.13;2.03;;;;;;;12.60;48.15;94319.94;5102628;28;20072;-75
2021/06/03 00:20:09;;;;;;;3.95;2.05;;;;;;;12.67;48.22;94316.00;5096696;28;20036;-75
2021/06/03 00:22:34;;;;;;;7.78;1.85;;;;;;;12.71;48.45;94316.94;5100476;28;20559;-74
2021/06/03 00:25:00;;;;;;;5.45;2.08;;;;;;;12.76;49.54;94320.25;5108328;28;20031;-75
2021/06/03 00:27:25;;;;;;;3.55;2.08;;;;;;;12.68;49.35;94320.22;5099230;28;20047;-75
2021/06/03 00:29:52;;;;;;;4.25;1.90;;;;;;;12.62;48.81;94317.72;5101047;28;20376;-75
2021/06/03 00:32:17;;;;;;;10.77;2.55;;;;;;;12.61;48.39;94310.00;5100898;28;20035;-74
2021/06/03 00:34:43;;;;;;;3.30;1.50;;;;;;;12.60;48.63;94305.78;5103041;28;20024;-75
2021/06/03 00:37:08;;;;;;;5.50;2.30;;;;;;;12.57;48.65;94309.06;5097521;28;20111;-74
2021/06/03 00:39:33;;;;;;;3.58;2.10;;;;;;;12.57;48.44;94307.19;5102359;28;20034;-75
2021/06/03 00:41:59;;;;;;;3.90;2.42;;;;;;;12.56;48.52;94308.28;5102186;28;20103;-74
2021/06/03 00:44:24;;;;;;;4.63;1.80;;;;;;;12.58;48.10;94308.75;5101528;28;20019;-75
2021/06/03 00:46:50;;;;;;;3.20;1.90;;;;;;;12.59;47.87;94315.66;5096151;28;20034;-75
2021/06/03 00:49:15;;;;;;;6.75;2.78;;;;;;;12.51;48.45;94311.09;5104211;28;20408;-74
2021/06/03 00:51:40;;;;;;;7.22;2.28;;;;;;;12.47;48.79;94323.53;5098581;28;20150;-75
2021/06/03 00:54:06;;;;;;;7.32;2.60;;;;;;;12.54;48.71;94312.38;5103085;28;20032;-75
2021/06/03 00:56:31;;;;;;;2.92;1.77;;;;;;;12.58;48.02;94310.66;5105364;28;20725;-74
2021/06/03 00:58:57;;;;;;;3.97;1.88;;;;;;;12.60;48.51;94311.91;5098875;28;20491;-74
2021/06/03 01:01:22;;;;;;;5.18;1.95;;;;;;;12.66;48.31;94315.22;5099882;28;20099;-74
2021/06/03 01:03:48;;;;;;;5.85;2.40;;;;;;;12.68;48.35;94314.88;5107315;28;20496;-74
2021/06/03 01:06:13;;;;;;;5.93;1.83;;;;;;;12.70;48.38;94308.13;5104897;28;20032;-74
2021/06/03 01:08:49;;;;;;;3.83;2.30;;;;;;;12.70;48.79;94316.16;5121638;28;20047;-74
2021/06/03 01:11:22;;;;;;;3.33;1.92;;;;;;;12.72;49.23;94313.16;5101786;28;20035;-75
2021/06/03 01:14:09;;;;;;;6.93;2.28;;;;;;;12.75;48.97;94316.00;5104661;28;20058;-75
2021/06/03 01:16:36;;;;;;;8.43;2.63;;;;;;;12.79;48.84;94308.13;5096721;28;20028;-75
2021/06/03 01:19:08;;;;;;;6.80;2.00;;;;;;;12.84;48.39;94313.31;5095356;28;20112;-75
2021/06/03 01:21:46;;;;;;;3.55;2.22;;;;;;;12.87;48.67;94306.56;5092233;28;20028;-75
2021/06/03 01:24:23;;;;;;;4.72;2.15;;;;;;;12.89;48.42;94321.19;5102442;28;20032;-75
2021/06/03 01:26:49;;;;;;;3.20;1.85;;;;;;;12.87;48.47;94312.69;5101383;28;20028;-75
2021/06/03 01:29:18;;;;;;;3.05;1.98;;;;;;;12.87;48.35;94318.03;5103113;28;20031;-75
2021/06/03 01:31:45;;;;;;;4.93;2.15;;;;;;;12.91;48.75;94323.56;5100245;28;20028;-75
2021/06/03 01:34:11;;;;;;;3.53;2.25;;;;;;;12.90;48.64;94327.31;5087870;28;20024;-75
2021/06/03 01:36:37;;;;;;;8.25;2.22;;;;;;;12.83;48.99;94325.13;5102885;28;20040;-75
2021/06/03 01:39:08;;;;;;;9.95;2.10;;;;;;;12.78;49.34;94315.38;5102420;28;20483;-76
2021/06/03 01:41:34;;;;;;;8.82;2.45;;;;;;;12.84;49.39;94313.31;5100200;28;20364;-76
2021/06/03 01:44:00;;;;;;;3.67;2.13;;;;;;;12.85;49.07;94317.56;5104550;28;20032;-75
2021/06/03 01:46:26;;;;;;;6.25;2.10;;;;;;;12.88;49.44;94318.81;5094258;28;20439;-75
2021/06/03 01:48:56;;;;;;;6.38;2.58;;;;;;;12.83;49.90;94315.19;5102316;27;20058;-75
2021/06/03 01:51:22;;;;;;;4.35;2.33;;;;;;;12.83;49.61;94327.81;5093849;28;20490;-75
2021/06/03 01:53:48;;;;;;;6.93;2.47;;;;;;;12.80;49.71;94312.38;5101684;28;20028;-75
2021/06/03 01:56:15;;;;;;;4.40;2.20;;;;;;;12.77;50.05;94323.72;5102996;28;20032;-75
2021/06/03 01:58:41;;;;;;;8.38;2.67;;;;;;;12.80;49.59;94315.03;5107774;28;20027;-75
2021/06/03 02:01:07;;;;;;;5.18;2.20;;;;;;;12.79;50.10;94313.47;5107871;28;20441;-76
2021/06/03 02:03:32;;;;;;;6.00;1.83;;;;;;;12.77;50.48;94315.69;5097899;28;20024;-76
2021/06/03 02:05:58;;;;;;;7.57;2.40;;;;;;;12.72;50.55;94324.66;5100592;27;20031;-75
2021/06/03 02:08:24;;;;;;;4.25;2.17;;;;;;;12.71;49.93;94316.94;5100845;28;20510;-75
2021/06/03 02:10:51;;;;;;;3.30;2.30;;;;;;;12.77;49.29;94326.38;5100773;28;20096;-75
2021/06/03 02:13:29;;;;;;;3.55;1.98;;;;;;;12.84;48.96;94329.34;5104941;28;20547;-75
2021/06/03 02:16:27;;;;;;;4.95;2.10;;;;;;;12.79;49.53;94324.19;5102935;28;20513;-75
2021/06/03 02:19:26;;;;;;;3.63;2.35;;;;;;;12.75;49.17;94320.56;5088913;28;20176;-75
2021/06/03 02:21:53;;;;;;;9.80;2.65;;;;;;;12.76;49.43;94322.13;5090542;28;20032;-76
2021/06/03 02:24:20;;;;;;;3.05;1.98;;;;;;;12.74;49.53;94335.03;5103853;28;20020;-75
2021/06/03 02:26:47;;;;;;;8.25;2.25;;;;;;;12.76;49.12;94328.28;5104144;28;20107;-75
2021/06/03 02:29:16;;;;;;;7.25;2.33;;;;;;;12.75;49.40;94320.56;5100315;28;20020;-75
2021/06/03 02:31:42;;;;;;;4.18;2.40;;;;;;;12.76;49.48;94324.78;5103075;28;20024;-75
2021/06/03 02:34:08;;;;;;;5.47;2.40;;;;;;;12.67;49.82;94334.72;5097816;28;20032;-75
2021/06/03 02:36:33;;;;;;;4.43;2.33;;;;;;;12.65;50.73;94333.13;5107791;28;20031;-76
2021/06/03 02:39:00;;;;;;;4.15;2.50;;;;;;;12.64;51.40;94333.47;5104070;28;20023;-75
2021/06/03 02:41:26;;;;;;;7.95;3.00;;;;;;;12.67;52.53;94334.72;5101993;28;20035;-75
2021/06/03 02:43:51;;;;;;;5.30;3.10;;;;;;;12.64;52.50;94331.56;5092890;28;20028;-75
2021/06/03 02:46:20;;;;;;;7.18;3.50;;;;;;;12.60;52.47;94335.97;5105142;28;20020;-75
2021/06/03 02:48:45;;;;;;;12.20;3.35;;;;;;;12.54;53.30;94339.13;5102272;28;20051;-76
2021/06/03 02:51:11;;;;;;;5.25;3.20;;;;;;;12.44;53.49;94337.53;5092243;28;20055;-75
2021/06/03 02:53:37;;;;;;;7.90;2.95;;;;;;;12.45;53.16;94339.09;5107397;28;20031;-75
2021/06/03 02:56:03;;;;;;;6.90;2.70;;;;;;;12.39;52.51;94345.69;5104239;28;20031;-75
2021/06/03 02:58:28;;;;;;;9.50;3.30;;;;;;;12.19;53.22;94347.88;5100341;28;20031;-75
2021/06/03 03:00:54;;;;;;;5.18;2.72;;;;;;;12.02;52.83;94337.13;5097485;28;20044;-75
2021/06/03 03:03:20;;;;;;;9.05;2.78;;;;;;;12.01;52.78;94341.69;5098677;28;20034;-75
2021/06/03 03:05:45;;;;;;;4.53;3.03;;;;;;;12.06;53.13;94354.09;5099147;28;20487;-75
2021/06/03 03:08:12;;;;;;;5.78;3.08;;;;;;;12.05;53.47;94349.88;5105680;28;20054;-76
2021/06/03 03:10:41;;;;;;;11.10;2.85;;;;;;;12.01;52.66;94347.03;5097070;28;20450;-75
2021/06/03 03:13:07;;;;;;;10.05;3.25;;;;;;;11.94;53.55;94356.56;5102621;28;20032;-75
2021/06/03 03:15:35;;;;;;;6.43;3.17;;;;;;;11.98;53.34;94363.66;5099805;28;20024;-75
2021/06/03 03:18:00;;;;;;;8.32;3.30;;;;;;;11.94;53.80;94367.25;5098415;28;20031;-75
2021/06/03 03:20:27;;;;;;;8.32;2.70;;;;;;;11.88;53.45;94360.44;5094042;28;22198;-75
2021/06/03 03:22:53;;;;;;;5.20;2.85;;;;;;;11.91;53.58;94360.66;5094155;28;20020;-75
2021/06/03 03:25:20;;;;;;;7.45;3.35;;;;;;;11.88;53.42;94368.47;5092401;28;20039;-75
2021/06/03 03:27:47;;;;;;;6.22;2.90;;;;;;;11.84;53.42;94363.75;5099569;28;20020;-76
2021/06/03 03:30:14;;;;;;;5.88;2.45;;;;;;;11.93;53.74;94363.03;5101283;28;20403;-76
2021/06/03 03:32:40;;;;;;;4.10;2.50;;;;;;;12.05;53.06;94360.56;5095794;28;20045;-75
2021/06/03 03:35:08;;;;;;;5.82;2.50;;;;;;;12.18;52.44;94369.53;5099489;28;20032;-75
2021/06/03 03:37:34;;;;;;;4.82;2.38;;;;;;;12.34;52.43;94369.91;5100775;28;20030;-75
2021/06/03 03:39:59;;;;;;;6.90;2.08;;;;;;;12.39;51.85;94361.72;5100394;28;20103;-76
2021/06/03 03:42:25;;;;;;;6.63;2.00;;;;;;;12.50;51.51;94381.72;5095221;28;20020;-75
2021/06/03 03:44:51;;;;;;;4.70;1.90;;;;;;;12.57;51.25;94371.34;5105726;28;20436;-76
2021/06/03 03:47:17;;;;;;;6.15;2.63;;;;;;;12.71;50.97;94373.09;5101592;28;20399;-75
2021/06/03 03:49:43;;;;;;;7.68;2.88;;;;;;;12.74;51.04;94367.13;5098714;28;20020;-75
2021/06/03 03:52:09;;;;;;;6.28;2.28;;;;;;;12.85;50.71;94379.88;5102631;28;20035;-75
2021/06/03 03:54:34;;;;;;;4.78;2.30;;;;;;;12.91;50.01;94385.88;5098712;28;20107;-76
2021/06/03 03:57:00;;;;;;;5.78;2.65;;;;;;;13.01;50.19;94384.78;5101436;28;20019;-76
2021/06/03 03:59:25;;;;;;;5.35;1.85;;;;;;;13.09;50.25;94377.81;5098139;28;20024;-75
2021/06/03 04:01:53;;;;;;;4.05;2.30;;;;;;;13.16;49.57;94378.16;5105342;28;20030;-76
2021/06/03 04:04:22;;;;;;;4.07;2.20;;;;;;;13.23;49.72;94373.91;5093241;28;20503;-76
2021/06/03 04:06:49;;;;;;;3.20;2.10;;;;;;;13.37;49.73;94384.47;5086388;28;20062;-76
2021/06/03 04:09:15;;;;;;;9.27;2.42;;;;;;;13.47;48.55;94374.50;5098856;28;20048;-76
2021/06/03 04:11:41;;;;;;;7.07;2.38;;;;;;;13.56;47.67;94380.66;5092655;28;20031;-76
2021/06/03 04:14:06;;;;;;;9.90;1.98;;;;;;;13.59;48.18;94385.34;5099025;28;20103;-76
2021/06/03 04:16:32;;;;;;;4.70;2.50;;;;;;;13.61;47.17;94383.13;5105521;28;20128;-75
2021/06/03 04:18:58;;;;;;;7.00;2.47;;;;;;;13.62;47.88;94387.41;5100475;28;20115;-75
2021/06/03 04:21:23;;;;;;;4.97;2.20;;;;;;;13.69;46.80;94382.31;5119739;27;20407;-76
2021/06/03 04:23:49;;;;;;;4.75;2.40;;;;;;;13.65;47.91;94384.84;5104392;28;20031;-76
2021/06/03 04:26:15;;;;;;;4.93;2.15;;;;;;;13.70;47.45;94391.16;5109280;28;20020;-76
2021/06/03 04:28:41;;;;;;;4.18;2.20;;;;;;;13.69;47.78;94389.59;5096120;28;20122;-76
2021/06/03 04:31:06;;;;;;;7.30;2.20;;;;;;;13.77;47.63;94397.59;5099321;28;20403;-76
2021/06/03 04:33:31;;;;;;;5.78;2.28;;;;;;;13.74;47.26;94402.78;5102089;28;20027;-76
2021/06/03 04:35:57;;;;;;;8.90;2.00;;;;;;;13.74;47.18;94398.25;5093913;28;20093;-76
2021/06/03 04:38:22;;;;;;;5.97;2.10;;;;;;;13.82;47.34;94394.75;5099263;28;20055;-76
2021/06/03 04:40:48;;;;;;;5.43;2.25;;;;;;;13.85;46.90;94409.41;5094312;28;20407;-76
2021/06/03 04:43:14;;;;;;;7.45;2.28;;;;;;;14.00;47.66;94398.16;5093228;28;20523;-76
2021/06/03 04:45:39;;;;;;;6.45;2.50;;;;;;;13.97;46.43;94400.69;5100685;28;20027;-76
2021/06/03 04:48:07;;;;;;;3.35;2.05;;;;;;;14.04;47.16;94398.28;5119343;28;20092;-76
2021/06/03 04:50:33;;;;;;;10.55;2.08;;;;;;;14.14;45.99;94403.28;5098682;28;20020;-76
2021/06/03 04:52:59;;;;;;;3.53;1.80;;;;;;;14.20;45.21;94404.69;5101092;28;20067;-76
2021/06/03 04:55:25;;;;;;;9.65;2.00;;;;;;;14.31;46.78;94415.06;5094884;28;20022;-75
2021/06/03 04:57:52;;;;;;;3.33;2.20;;;;;;;14.38;45.39;94410.75;5099816;28;20062;-76
2021/06/03 05:00:22;;;;;;;4.10;1.98;;;;;;;14.42;44.60;94406.31;5101333;28;20024;-76
2021/06/03 05:02:48;;;;;;;7.03;2.10;;;;;;;14.47;44.56;94407.25;5095018;28;20084;-75
2021/06/03 05:05:14;;;;;;;10.23;1.92;;;;;;;14.43;44.91;94407.09;5097655;28;20023;-75
2021/06/03 05:07:40;;;;;;;6.38;2.20;;;;;;;14.38;45.11;94407.31;5101326;28;20016;-75
2021/06/03 05:10:07;;;;;;;3.47;2.20;;;;;;;14.39;44.58;94406.19;5096193;28;20160;-75
2021/06/03 05:12:33;;;;;;;6.07;1.92;;;;;;;14.32;44.93;94412.06;5096744;28;20509;-76
2021/06/03 05:14:59;;;;;;;6.35;1.92;;;;;;;14.32;44.68;94395.97;5110463;28;20024;-76
2021/06/03 05:17:24;;;;;;;10.27;2.00;;;;;;;14.26;44.66;94407.97;5118510;27;20043;-75
2021/06/03 05:19:50;;;;;;;7.63;2.30;;;;;;;14.28;44.05;94415.72;5111354;28;20038;-75
2021/06/03 05:22:15;;;;;;;9.23;2.15;;;;;;;14.22;43.12;94412.41;5105060;28;20521;-75
2021/06/03 05:24:41;;;;;;;3.05;1.85;;;;;;;14.29;43.22;94406.53;5100665;28;20111;-75
2021/06/03 05:27:07;;;;;;;7.05;1.90;;;;;;;14.22;42.86;94415.88;5100472;28;20111;-75
2021/06/03 05:29:32;;;;;;;7.82;2.15;;;;;;;14.18;42.70;94409.59;5104830;28;20015;-75
2021/06/03 05:31:58;;;;;;;3.25;1.95;;;;;;;14.17;43.15;94413.38;5108812;28;20554;-75
2021/06/03 05:34:24;;;;;;;3.90;2.20;;;;;;;14.18;42.21;94414.16;5110842;28;20023;-75
2021/06/03 05:36:49;;;;;;;4.63;2.17;;;;;;;14.23;42.82;94425.50;5105849;28;20023;-75
2021/06/03 05:39:15;;;;;;;3.75;1.77;;;;;;;14.23;43.64;94430.88;5092968;28;20404;-75
2021/06/03 05:41:41;;;;;;;4.72;2.20;;;;;;;14.31;43.54;94431.94;5104503;28;20107;-75
2021/06/03 05:44:08;;;;;;;4.20;2.05;;;;;;;14.27;43.34;94436.38;5104337;28;20023;-75
2021/06/03 05:46:35;;;;;;;4.20;2.08;;;;;;;14.25;43.46;94435.91;5101024;28;20024;-75
2021/06/03 05:49:01;;;;;;;6.07;2.22;;;;;;;14.21;44.37;94433.09;5106694;28;20555;-75
2021/06/03 05:51:27;;;;;;;6.07;2.05;;;;;;;14.24;44.11;94424.38;5104599;28;20119;-75
2021/06/03 05:53:52;;;;;;;11.75;2.22;;;;;;;14.36;45.00;94430.97;5100655;28;20102;-75
2021/06/03 05:56:18;;;;;;;3.33;2.00;;;;;;;14.48;44.81;94435.66;5103688;28;20027;-75
2021/06/03 05:58:44;;;;;;;4.18;1.80;;;;;;;14.48;43.59;94441.81;5099147;28;20498;-75
2021/06/03 06:01:09;;;;;;;4.03;2.20;;;;;;;14.48;43.52;94447.16;5104842;28;20127;-75
2021/06/03 06:08:35;;;;;;;9.27;2.30;;;;;;;14.40;44.41;94442.63;5092068;28;20476;-75
2021/06/03 06:11:01;;;;;;;4.32;1.65;;;;;;;14.44;44.00;94444.34;5104045;28;20363;-75
2021/06/03 06:13:26;;;;;;;7.00;2.90;;;;;;;14.50;45.31;94439.56;5104137;28;20373;-71
2021/06/03 06:15:52;;;;;;;7.32;2.22;;;;;;;14.44;43.77;94432.81;5099788;28;20028;-72
2021/06/03 06:18:17;;;;;;;5.32;2.00;;;;;;;14.52;44.24;94469.53;5099882;28;20123;-73
2021/06/03 06:20:43;;;;;;;5.45;2.03;;;;;;;14.57;43.25;94442.59;5091036;28;20407;-72
2021/06/03 06:23:08;;;;;;;9.70;2.28;;;;;;;14.67;44.77;94432.59;5110619;28;20031;-73
2021/06/03 06:25:35;;;;;;;4.50;2.00;;;;;;;14.64;42.96;94442.06;5113643;28;20019;-73
2021/06/03 06:28:00;;;;;;;3.58;2.13;;;;;;;14.64;43.57;94434.03;5105142;28;20062;-73
2021/06/03 06:30:27;;;;;;;10.65;2.10;;;;;;;14.56;42.48;94438.31;5097927;28;20032;-72
2021/06/03 06:32:55;;;;;;;7.65;1.83;;;;;;;14.56;42.48;94429.50;5109629;28;20114;-72
2021/06/03 06:35:21;;;;;;;4.22;2.05;;;;;;;14.62;42.47;94437.03;5110260;28;20114;-72
2021/06/03 06:37:46;;;;;;;4.80;1.70;;;;;;;14.72;42.79;94443.13;5106031;28;20522;-73
2021/06/03 06:40:12;;;;;;;6.07;2.30;;;;;;;14.76;42.09;94428.75;5099679;28;20457;-73
2021/06/03 06:42:38;;;;;;;3.45;1.55;;;;;;;14.77;41.70;94440.25;5102719;28;20031;-74
2021/06/03 06:45:05;;;;;;;6.95;2.78;;;;;;;14.86;44.13;94446.38;5099413;28;20038;-74
2021/06/03 06:47:31;;;;;;;5.93;2.08;;;;;;;15.10;43.78;94461.03;5099999;28;20027;-74
2021/06/03 06:49:57;;;;;;;7.15;3.03;;;;;;;15.03;43.35;94453.50;5097363;28;20044;-74
2021/06/03 06:52:23;;;;;;;8.60;2.50;;;;;;;15.15;42.32;94436.69;5100627;28;20064;-72
2021/06/03 06:54:48;;;;;;;4.95;2.25;;;;;;;15.09;42.62;94446.84;5102816;28;20099;-73
2021/06/03 06:57:14;;;;;;;7.35;2.28;;;;;;;15.10;43.55;94452.97;5090312;28;20103;-74
2021/06/03 06:59:39;;;;;;;4.63;2.00;;;;;;;15.16;43.80;94443.63;5105932;28;20062;-74
2021/06/03 07:02:05;;;;;;;9.93;2.30;;;;;;;15.30;45.58;94438.00;5104101;28;20073;-72
2021/06/03 07:04:30;;;;;;;6.00;2.33;;;;;;;15.42;43.64;94440.72;5100068;28;20030;-75
2021/06/03 07:06:56;;;;;;;3.88;2.25;;;;;;;15.38;43.80;94461.31;5091541;28;20479;-75
2021/06/03 07:09:22;;;;;;;3.75;2.22;;;;;;;15.29;43.54;94447.19;5098685;28;20495;-75
2021/06/03 07:11:47;;;;;;;5.05;2.00;;;;;;;15.22;43.80;94437.75;5089767;28;20024;-74
2021/06/03 07:14:13;;;;;;;6.05;2.20;;;;;;;15.23;44.94;94446.59;5091032;28;20415;-74
2021/06/03 07:16:38;;;;;;;6.03;2.75;;;;;;;15.39;43.53;94436.81;5104609;28;20046;-74
2021/06/03 07:19:03;;;;;;;3.63;2.17;;;;;;;15.28;43.25;94446.38;5105809;28;20020;-75
2021/06/03 07:21:30;;;;;;;5.38;2.00;;;;;;;15.08;42.48;94455.22;5089955;28;20028;-75
2021/06/03 07:23:56;;;;;;;8.85;2.13;;;;;;;15.04;43.08;94447.81;5090842;28;20119;-73
2021/06/03 07:26:23;;;;;;;4.35;2.08;;;;;;;15.07;42.47;94445.59;5093507;28;20490;-74
2021/06/03 07:28:49;;;;;;;4.28;1.70;;;;;;;15.16;43.52;94471.28;5099617;28;20016;-74
2021/06/03 07:31:15;;;;;;;9.82;2.50;;;;;;;15.05;42.00;94456.66;5090849;28;20452;-75
2021/06/03 07:33:41;;;;;;;10.77;2.50;;;;;;;15.02;41.93;94458.09;5091649;28;20024;-73
2021/06/03 07:36:08;;;;;;;9.20;2.08;;;;;;;15.09;42.36;94448.75;5110807;28;20475;-76
2021/06/03 07:38:34;;;;;;;5.55;2.15;;;;;;;15.12;40.74;94432.78;5100454;28;20111;-70
2021/06/03 07:40:59;;;;;;;12.57;2.38;;;;;;;15.16;41.03;94459.72;5096328;28;20107;-71
2021/06/03 07:43:25;;;;;;;4.05;2.47;;;;;;;15.14;40.31;94454.72;5096825;28;20405;-72
2021/06/03 07:45:50;;;;;;;15.18;2.45;;;;;;;15.13;40.94;94437.00;5095479;28;20133;-72
2021/06/03 07:48:16;;;;;;;5.05;2.10;;;;;;;15.17;40.40;94466.69;5103407;28;20023;-71
2021/06/03 07:50:42;;;;;;;5.75;1.88;;;;;;;15.15;40.85;94458.16;5100826;28;20055;-71
2021/06/03 07:53:08;;;;;;;5.63;1.70;;;;;;;15.27;40.93;94458.25;5094640;28;20095;-72
2021/06/03 07:55:35;;;;;;;7.85;1.85;;;;;;;15.34;40.92;94444.28;5107517;27;20027;-72
2021/06/03 07:58:04;;;;;;;3.33;1.58;;;;;;;15.30;40.39;94460.25;5105374;28;20076;-75
2021/06/03 08:00:31;;;;;;;7.63;1.98;;;;;;;15.22;40.62;94437.75;5109542;28;20039;-74
2021/06/03 08:02:57;;;;;;;6.20;2.13;;;;;;;15.27;40.81;94455.56;5108223;28;20023;-74
2021/06/03 08:05:25;;;;;;;7.45;2.40;;;;;;;15.21;40.96;94456.88;5090867;28;20028;-73
2021/06/03 08:07:52;;;;;;;10.18;2.13;;;;;;;15.18;40.69;94454.81;5097609;28;20106;-74
2021/06/03 08:10:24;;;;;;;5.88;2.20;;;;;;;15.15;40.43;94469.69;5100321;28;20085;-74
2021/06/03 08:12:50;;;;;;;6.82;2.22;;;;;;;15.12;40.96;94429.28;5102250;28;20023;-74
2021/06/03 08:15:16;;;;;;;3.22;1.83;;;;;;;15.21;42.86;94438.84;5104443;28;20482;-73
2021/06/03 08:17:42;;;;;;;7.78;2.85;;;;;;;15.16;40.71;94449.81;5099165;28;20552;-74
2021/06/03 08:20:15;;;;;;;7.85;1.88;;;;;;;15.13;41.25;94449.66;5102378;28;20023;-73
2021/06/03 08:22:41;;;;;;;9.77;1.98;;;;;;;15.28;40.71;94465.16;5100980;28;20380;-73
2021/06/03 08:25:08;;;;;;;3.70;1.60;;;;;;;15.30;39.93;94456.78;5105816;28;20039;-72
2021/06/03 08:27:33;;;;;;;3.83;1.90;;;;;;;15.40;39.91;94443.75;5097634;28;20012;-72
2021/06/03 08:29:59;;;;;;;3.95;2.00;;;;;;;15.49;41.31;94426.75;5092748;28;20030;-74
2021/06/03 08:32:24;;;;;;;3.45;1.95;;;;;;;15.55;40.88;94446.94;5104465;28;20038;-74
2021/06/03 08:34:50;;;;;;;6.35;2.33;;;;;;;15.55;40.81;94438.88;5095021;28;20101;-72
2021/06/03 08:37:15;;;;;;;4.60;1.73;;;;;;;15.51;41.37;94443.34;5102964;28;20016;-77
2021/06/03 08:39:41;;;;;;;6.97;1.75;;;;;;;15.59;38.43;94431.72;5097504;28;20062;-74
2021/06/03 08:42:07;;;;;;;6.88;1.75;;;;;;;15.59;38.41;94442.47;5100534;28;20024;-78
2021/06/03 08:44:33;;;;;;;6.93;2.00;;;;;;;15.61;39.05;94448.31;5101675;28;20031;-77
2021/06/03 08:46:59;;;;;;;7.82;2.38;;;;;;;15.67;39.60;94446.97;5095671;28;20521;-78
2021/06/03 08:49:24;;;;;;;6.68;1.80;;;;;;;15.80;41.45;94451.31;5103250;28;20054;-73
2021/06/03 08:51:54;;;;;;;19.92;2.20;;;;;;;15.82;41.35;94445.63;5107260;28;20036;-72
2021/06/03 08:54:21;;;;;;;3.05;2.17;;;;;;;15.87;41.55;94455.38;5101768;28;20039;-72
2021/06/03 08:56:46;;;;;;;4.60;2.47;;;;;;;15.86;41.21;94451.13;5105718;28;20039;-72
2021/06/03 08:59:12;;;;;;;3.28;1.73;;;;;;;15.89;41.04;94453.13;5103925;28;20028;-74
2021/06/03 09:01:40;;;;;;;11.65;2.58;;;;;;;15.94;40.41;94461.00;5098516;28;20111;-73
2021/06/03 09:04:06;;;;;;;8.25;2.28;;;;;;;16.01;40.26;94453.19;5108641;28;20032;-73
2021/06/03 09:06:32;;;;;;;3.95;1.95;;;;;;;15.94;38.03;94450.25;5105366;28;20035;-74
2021/06/03 09:08:59;;;;;;;8.75;1.67;;;;;;;16.06;38.99;94447.59;5104150;28;20508;-72
2021/06/03 09:11:30;;;;;;;4.95;2.13;;;;;;;16.10;39.98;94453.88;5110749;28;20585;-69
2021/06/03 09:13:58;;;;;;;6.88;1.95;;;;;;;16.08;37.00;94461.50;5093439;28;20028;-68
2021/06/03 09:16:26;;;;;;;4.80;2.25;;;;;;;16.08;39.66;94458.81;5093439;28;20052;-68
2021/06/03 09:18:53;;;;;;;14.73;4.20;;;;;;;16.22;40.30;94451.22;5093267;28;20035;-68
2021/06/03 09:21:27;;;;;;;4.63;2.00;;;;;;;16.21;37.08;94464.97;5093401;28;20111;-68
2021/06/03 09:24:00;;;;;;;11.20;2.45;;;;;;;16.20;37.39;94449.94;5092131;28;20058;-68
2021/06/03 09:26:29;;;;;;;6.32;1.60;;;;;;;16.28;37.84;94445.59;5093187;28;20034;-69
2021/06/03 09:28:56;;;;;;;11.05;2.35;;;;;;;16.45;37.79;94456.16;5091857;28;20051;-68
2021/06/03 09:31:28;;;;;;;6.60;1.73;;;;;;;16.61;37.28;94449.00;5093157;28;20028;-69
2021/06/03 09:34:06;;;;;;;5.47;1.73;;;;;;;16.73;38.18;94458.16;5093159;28;20506;-69
2021/06/03 09:36:39;;;;;;;5.70;1.92;;;;;;;16.73;37.45;94467.06;5092864;28;20065;-69
2021/06/03 09:39:07;;;;;;;14.73;2.08;;;;;;;16.81;38.70;94450.03;5102985;28;20371;-68
2021/06/03 09:41:35;;;;;;;5.65;2.00;;;;;;;16.99;37.90;94442.47;5112062;28;20023;-68
2021/06/03 09:44:05;;;;;;;5.50;2.05;;;;;;;17.09;37.43;94443.91;5111819;28;20494;-69
2021/06/03 09:46:44;;;;;;;9.35;2.35;;;;;;;17.29;37.67;94452.97;5111873;28;20069;-68
2021/06/03 09:49:22;;;;;;;4.55;2.10;;;;;;;17.22;35.75;94450.09;5113379;28;20069;-68
2021/06/03 09:51:50;;;;;;;3.33;2.00;;;;;;;17.12;37.03;94437.09;5112798;28;20047;-68
2021/06/03 09:54:19;;;;;;;3.08;1.77;;;;;;;17.06;36.41;94460.78;5111777;28;20102;-68
2021/06/03 09:56:50;;;;;;;7.85;2.05;;;;;;;17.03;37.42;94456.06;5111572;28;20027;-68
2021/06/03 09:59:34;;;;;;;3.92;2.17;;;;;;;17.13;37.45;94466.34;5111421;28;20052;-68
2021/06/03 10:02:05;;;;;;;7.03;1.92;;;;;;;17.29;37.32;94460.28;5111687;28;20020;-69
2021/06/03 10:04:35;;;;;;;7.63;2.42;;;;;;;17.46;37.14;94443.81;5095082;28;20038;-69
2021/06/03 10:07:04;;;;;;;4.78;1.88;;;;;;;17.62;36.27;94454.66;5092313;28;20483;-68
2021/06/03 10:09:57;;;;;;;6.45;2.10;;;;;;;17.79;35.40;94453.59;5092151;28;20139;-68
2021/06/03 10:12:23;;;;;;;4.95;2.17;;;;;;;17.60;35.99;94446.13;5092165;28;20059;-69
2021/06/03 10:14:50;;;;;;;12.23;2.70;;;;;;;17.55;35.14;94457.94;5092114;28;20078;-68
2021/06/03 10:17:25;;;;;;;5.82;2.10;;;;;;;17.54;36.21;94456.38;5091752;28;20460;-69
2021/06/03 10:19:54;;;;;;;5.32;1.67;;;;;;;17.40;35.72;94447.88;5089295;28;20043;-68
2021/06/03 10:22:24;;;;;;;3.20;1.92;;;;;;;17.40;35.49;94455.97;5092780;28;20035;-68
2021/06/03 10:24:55;;;;;;;4.18;2.00;;;;;;;17.38;36.12;94455.53;5110860;28;20568;-68
2021/06/03 10:27:24;;;;;;;10.93;2.13;;;;;;;17.36;36.42;94447.81;5110398;28;20478;-68
2021/06/03 10:29:51;;;;;;;6.03;1.85;;;;;;;17.54;37.27;94453.66;5110455;27;20138;-68
2021/06/03 10:32:19;;;;;;;5.85;2.08;;;;;;;17.74;36.13;94457.31;5110059;28;20422;-68
2021/06/03 10:34:45;;;;;;;3.70;1.52;;;;;;;17.78;35.13;94460.88;5095842;28;20059;-68
2021/06/03 10:37:13;;;;;;;2.60;1.60;;;;;;;17.67;37.00;94457.13;5110117;28;20025;-68
2021/06/03 10:39:40;;;;;;;3.40;1.70;;;;;;;17.71;36.54;94454.50;5107921;28;20389;-68
2021/06/03 10:42:05;;;;;;;3.60;1.77;;;;;;;17.68;34.93;94449.81;5112456;28;20061;-68
2021/06/03 10:44:31;;;;;;;4.97;1.67;;;;;;;17.74;34.90;94443.06;5110600;28;20055;-68
2021/06/03 10:46:57;;;;;;;9.13;2.03;;;;;;;17.91;34.29;94455.47;5096718;28;20024;-68
2021/06/03 10:49:24;;;;;;;4.85;1.90;;;;;;;17.87;33.51;94441.91;5097854;28;20027;-68
2021/06/03 10:51:50;;;;;;;10.98;1.80;;;;;;;17.99;34.18;94446.44;5112057;28;20023;-68
2021/06/03 10:54:45;;;;;;;6.57;1.95;;;;;;;18.02;34.00;94441.13;5103872;28;20024;-68
2021/06/03 10:57:13;;;;;;;5.40;1.75;;;;;;;18.06;34.38;94443.94;5108097;27;20047;-68
2021/06/03 10:59:39;;;;;;;5.07;2.28;;;;;;;18.16;34.96;94443.41;5099091;28;20464;-68
2021/06/03 11:02:07;;;;;;;8.32;1.85;;;;;;;18.21;33.80;94440.44;5107182;28;20024;-68
2021/06/03 11:04:34;;;;;;;3.88;1.50;;;;;;;18.37;34.05;94442.38;5111209;28;20023;-68
2021/06/03 11:07:00;;;;;;;3.45;1.60;;;;;;;18.38;32.36;94460.16;5111332;28;20403;-68
2021/06/03 11:09:30;;;;;;;6.07;1.63;;;;;;;18.19;31.33;94450.81;5099777;28;20051;-68
2021/06/03 11:12:25;;;;;;;3.95;1.70;;;;;;;18.15;33.63;94438.38;5106035;28;20395;-68
2021/06/03 11:15:11;;;;;;;3.50;1.80;;;;;;;18.28;34.44;94449.84;5077353;28;20448;-69
2021/06/03 11:17:52;;;;;;;6.40;1.80;;;;;;;18.28;33.79;94441.75;5090760;28;20016;-70
2021/06/03 11:20:34;;;;;;;4.40;2.00;;;;;;;18.50;34.37;94445.78;5089872;28;20040;-70
2021/06/03 11:23:34;;;;;;;7.47;3.15;;;;;;;18.63;32.47;94431.84;5090547;28;20028;-69
2021/06/03 11:26:00;;;;;;;9.35;1.85;;;;;;;18.76;31.55;94445.25;5097846;28;20020;-68
2021/06/03 11:28:26;;;;;;;8.45;3.78;;;;;;;18.68;32.17;94438.88;5101084;28;20114;-69
2021/06/03 11:30:55;;;;;;;3.55;1.67;;;;;;;18.86;31.95;94439.31;5093639;28;20110;-69
2021/06/03 11:33:22;;;;;;;2.42;1.35;;;;;;;18.95;32.52;94436.44;5111205;28;20031;-69
2021/06/03 11:35:48;;;;;;;12.65;1.92;;;;;;;19.12;32.69;94427.94;5101652;28;20054;-69
2021/06/03 11:38:40;;;;;;;5.20;1.95;;;;;;;19.34;32.90;94425.72;5110969;28;20035;-69